sensor_id;sensor_type;location;lat;lon;timestamp;pressure;altitude;pressure_sealevel;temperature;humidity
78671;BME280;68277;52.724;6.516;2023-11-19T00:02:20;100641.28;;;9.96;100.00
78671;BME280;68277;52.724;6.516;2023-11-19T00:04:47;100640.28;;;10.02;100.00
78671;BME280;68277;52.724;6.516;2023-11-19T00:07:13;100631.34;;;10.07;100.00
78671;BME280;68277;52.724;6.516;2023-11-19T00:09:39;100667.06;;;10.25;100.00
78671;BME280;68277;52.724;6.516;2023-11-19T00:12:06;100610.09;;;10.10;100.00
78671;BME280;68277;52.724;6.516;2023-11-19T00:14:32;100642.91;;;10.40;100.00
78671;BME280;68277;52.724;6.516;2023-11-19T00:16:58;100654.31;;;10.42;100.00
78671;BME280;68277;52.724;6.516;2023-11-19T00:19:23;100634.16;;;10.38;100.00
78671;BME280;68277;52.724;6.516;2023-11-19T00:21:50;100650.44;;;10.57;100.00
78671;BME280;68277;52.724;6.516;2023-11-19T00:24:15;100644.25;;;10.56;100.00
78671;BME280;68277;52.724;6.516;2023-11-19T00:26:42;100626.88;;;10.46;100.00
78671;BME280;68277;52.724;6.516;2023-11-19T00:29:08;100593.78;;;10.30;100.00
78671;BME280;68277;52.724;6.516;2023-11-19T00:31:33;100613.75;;;10.42;100.00
78671;BME280;68277;52.724;6.516;2023-11-19T00:33:59;100634.50;;;10.58;100.00
78671;BME280;68277;52.724;6.516;2023-11-19T00:36:24;100609.16;;;10.50;100.00
78671;BME280;68277;52.724;6.516;2023-11-19T00:38:51;100586.34;;;10.46;100.00
78671;BME280;68277;52.724;6.516;2023-11-19T00:41:18;100605.38;;;10.60;100.00
78671;BME280;68277;52.724;6.516;2023-11-19T00:43:44;100575.66;;;10.49;100.00
78671;BME280;68277;52.724;6.516;2023-11-19T00:46:10;100621.63;;;10.78;100.00
78671;BME280;68277;52.724;6.516;2023-11-19T00:48:39;100588.56;;;10.61;100.00
78671;BME280;68277;52.724;6.516;2023-11-19T00:51:05;100584.78;;;10.71;100.00
78671;BME280;68277;52.724;6.516;2023-11-19T00:53:31;100575.97;;;10.70;100.00
78671;BME280;68277;52.724;6.516;2023-11-19T00:56:00;100574.34;;;10.65;100.00
78671;BME280;68277;52.724;6.516;2023-11-19T00:58:26;100579.84;;;10.57;100.00
78671;BME280;68277;52.724;6.516;2023-11-19T01:00:52;100597.97;;;10.72;100.00
78671;BME280;68277;52.724;6.516;2023-11-19T01:03:17;100607.34;;;10.84;100.00
78671;BME280;68277;52.724;6.516;2023-11-19T01:05:43;100519.72;;;10.30;100.00
78671;BME280;68277;52.724;6.516;2023-11-19T01:08:10;100542.13;;;10.49;100.00
78671;BME280;68277;52.724;6.516;2023-11-19T01:10:38;100549.81;;;10.58;100.00
78671;BME280;68277;52.724;6.516;2023-11-19T01:13:05;100567.84;;;10.76;100.00
78671;BME280;68277;52.724;6.516;2023-11-19T01:15:31;100560.97;;;10.69;100.00
78671;BME280;68277;52.724;6.516;2023-11-19T01:17:57;100569.47;;;10.82;100.00
78671;BME280;68277;52.724;6.516;2023-11-19T01:20:22;100571.97;;;10.88;100.00
78671;BME280;68277;52.724;6.516;2023-11-19T01:22:49;100578.22;;;10.84;100.00
78671;BME280;68277;52.724;6.516;2023-11-19T01:25:14;100587.66;;;10.94;100.00
78671;BME280;68277;52.724;6.516;2023-11-19T01:27:40;100576.41;;;10.86;100.00
78671;BME280;68277;52.724;6.516;2023-11-19T01:30:06;100572.91;;;10.85;100.00
78671;BME280;68277;52.724;6.516;2023-11-19T01:32:34;100576.50;;;10.83;100.00
78671;BME280;68277;52.724;6.516;2023-11-19T01:35:03;100612.97;;;11.04;100.00
78671;BME280;68277;52.724;6.516;2023-11-19T01:37:29;100579.72;;;10.94;100.00
78671;BME280;68277;52.724;6.516;2023-11-19T01:39:54;100601.31;;;11.10;100.00
78671;BME280;68277;52.724;6.516;2023-11-19T01:42:20;100604.91;;;11.09;100.00
78671;BME280;68277;52.724;6.516;2023-11-19T01:44:58;100563.91;;;10.91;100.00
78671;BME280;68277;52.724;6.516;2023-11-19T01:47:25;100563.09;;;10.89;100.00
78671;BME280;68277;52.724;6.516;2023-11-19T01:49:51;100563.00;;;10.92;100.00
78671;BME280;68277;52.724;6.516;2023-11-19T01:52:18;100588.97;;;11.10;100.00
78671;BME280;68277;52.724;6.516;2023-11-19T01:54:44;100546.31;;;10.88;100.00
78671;BME280;68277;52.724;6.516;2023-11-19T01:57:12;100574.84;;;11.10;100.00
78671;BME280;68277;52.724;6.516;2023-11-19T01:59:38;100532.25;;;10.88;100.00
78671;BME280;68277;52.724;6.516;2023-11-19T02:02:06;100562.69;;;11.02;100.00
78671;BME280;68277;52.724;6.516;2023-11-19T02:04:32;100565.53;;;10.96;100.00
78671;BME280;68277;52.724;6.516;2023-11-19T02:06:58;100580.94;;;11.13;100.00
78671;BME280;68277;52.724;6.516;2023-11-19T02:09:24;100539.19;;;10.90;100.00
78671;BME280;68277;52.724;6.516;2023-11-19T02:11:50;100522.56;;;10.87;100.00
78671;BME280;68277;52.724;6.516;2023-11-19T02:14:24;100562.56;;;11.07;100.00
78671;BME280;68277;52.724;6.516;2023-11-19T02:16:52;100554.72;;;11.04;100.00
78671;BME280;68277;52.724;6.516;2023-11-19T02:19:20;100533.06;;;10.90;100.00
78671;BME280;68277;52.724;6.516;2023-11-19T02:21:46;100541.69;;;10.96;100.00
78671;BME280;68277;52.724;6.516;2023-11-19T02:24:14;100572.16;;;11.11;100.00
78671;BME280;68277;52.724;6.516;2023-11-19T02:26:59;100579.97;;;11.16;100.00
78671;BME280;68277;52.724;6.516;2023-11-19T02:29:27;100553.97;;;10.99;100.00
78671;BME280;68277;52.724;6.516;2023-11-19T02:31:53;100591.47;;;11.15;100.00
78671;BME280;68277;52.724;6.516;2023-11-19T02:34:20;100553.94;;;11.00;100.00
78671;BME280;68277;52.724;6.516;2023-11-19T02:36:47;100543.53;;;10.93;100.00
78671;BME280;68277;52.724;6.516;2023-11-19T02:39:13;100538.38;;;10.88;100.00
78671;BME280;68277;52.724;6.516;2023-11-19T02:41:39;100527.78;;;10.88;100.00
78671;BME280;68277;52.724;6.516;2023-11-19T02:44:06;100549.31;;;11.07;100.00
78671;BME280;68277;52.724;6.516;2023-11-19T02:46:31;100565.78;;;11.18;100.00
78671;BME280;68277;52.724;6.516;2023-11-19T02:48:58;100533.75;;;10.96;100.00
78671;BME280;68277;52.724;6.516;2023-11-19T02:51:24;100511.00;;;10.89;100.00
78671;BME280;68277;52.724;6.516;2023-11-19T02:53:49;100544.13;;;11.04;100.00
78671;BME280;68277;52.724;6.516;2023-11-19T02:56:14;100515.38;;;10.90;100.00
78671;BME280;68277;52.724;6.516;2023-11-19T02:58:45;100551.94;;;11.09;100.00
78671;BME280;68277;52.724;6.516;2023-11-19T03:01:12;100534.72;;;10.94;100.00
78671;BME280;68277;52.724;6.516;2023-11-19T03:03:56;100547.88;;;10.97;100.00
78671;BME280;68277;52.724;6.516;2023-11-19T03:06:23;100565.94;;;11.12;100.00
78671;BME280;68277;52.724;6.516;2023-11-19T03:08:49;100499.00;;;10.78;100.00
78671;BME280;68277;52.724;6.516;2023-11-19T03:11:15;100506.72;;;10.85;100.00
78671;BME280;68277;52.724;6.516;2023-11-19T03:13:40;100547.50;;;11.09;100.00
78671;BME280;68277;52.724;6.516;2023-11-19T03:16:07;100553.78;;;11.05;100.00
78671;BME280;68277;52.724;6.516;2023-11-19T03:18:36;100533.91;;;10.90;100.00
78671;BME280;68277;52.724;6.516;2023-11-19T03:21:02;100543.41;;;10.97;100.00
78671;BME280;68277;52.724;6.516;2023-11-19T03:23:28;100502.69;;;10.72;100.00
78671;BME280;68277;52.724;6.516;2023-11-19T03:25:54;100529.84;;;10.79;100.00
78671;BME280;68277;52.724;6.516;2023-11-19T03:28:21;100515.84;;;10.75;100.00
78671;BME280;68277;52.724;6.516;2023-11-19T03:30:46;100525.38;;;10.81;100.00
78671;BME280;68277;52.724;6.516;2023-11-19T03:33:12;100530.44;;;10.88;100.00
78671;BME280;68277;52.724;6.516;2023-11-19T03:35:37;100538.38;;;10.90;100.00
78671;BME280;68277;52.724;6.516;2023-11-19T03:38:03;100546.94;;;10.98;100.00
78671;BME280;68277;52.724;6.516;2023-11-19T03:40:28;100554.59;;;11.07;100.00
78671;BME280;68277;52.724;6.516;2023-11-19T03:42:56;100514.81;;;10.81;100.00
78671;BME280;68277;52.724;6.516;2023-11-19T03:45:24;100520.81;;;10.86;100.00
78671;BME280;68277;52.724;6.516;2023-11-19T03:47:50;100548.59;;;11.02;100.00
78671;BME280;68277;52.724;6.516;2023-11-19T03:50:21;100512.97;;;10.83;100.00
78671;BME280;68277;52.724;6.516;2023-11-19T03:52:47;100502.53;;;10.78;100.00
78671;BME280;68277;52.724;6.516;2023-11-19T03:55:13;100511.06;;;10.88;100.00
78671;BME280;68277;52.724;6.516;2023-11-19T03:57:39;100486.84;;;10.71;100.00
78671;BME280;68277;52.724;6.516;2023-11-19T04:00:05;100510.28;;;10.84;100.00
78671;BME280;68277;52.724;6.516;2023-11-19T04:02:40;100533.56;;;11.02;100.00
78671;BME280;68277;52.724;6.516;2023-11-19T04:05:06;100500.41;;;10.89;100.00
78671;BME280;68277;52.724;6.516;2023-11-19T04:07:32;100488.28;;;10.82;100.00
78671;BME280;68277;52.724;6.516;2023-11-19T04:09:59;100529.19;;;11.02;100.00
78671;BME280;68277;52.724;6.516;2023-11-19T04:12:24;100483.19;;;10.75;100.00
78671;BME280;68277;52.724;6.516;2023-11-19T04:14:50;100455.50;;;10.57;100.00
78671;BME280;68277;52.724;6.516;2023-11-19T04:17:17;100533.44;;;11.07;100.00
78671;BME280;68277;52.724;6.516;2023-11-19T04:19:43;100540.47;;;11.08;100.00
78671;BME280;68277;52.724;6.516;2023-11-19T04:22:08;100506.53;;;10.91;100.00
78671;BME280;68277;52.724;6.516;2023-11-19T04:24:34;100471.72;;;10.74;100.00
78671;BME280;68277;52.724;6.516;2023-11-19T04:27:00;100524.88;;;10.97;100.00
78671;BME280;68277;52.724;6.516;2023-11-19T04:29:25;100538.84;;;11.02;100.00
78671;BME280;68277;52.724;6.516;2023-11-19T04:31:53;100483.31;;;10.70;100.00
78671;BME280;68277;52.724;6.516;2023-11-19T04:34:19;100532.00;;;10.95;100.00
78671;BME280;68277;52.724;6.516;2023-11-19T04:36:45;100526.09;;;10.86;100.00
78671;BME280;68277;52.724;6.516;2023-11-19T04:39:10;100533.97;;;10.89;100.00
78671;BME280;68277;52.724;6.516;2023-11-19T04:41:46;100533.97;;;10.89;100.00
78671;BME280;68277;52.724;6.516;2023-11-19T04:44:13;100496.81;;;10.61;100.00
78671;BME280;68277;52.724;6.516;2023-11-19T04:46:39;100536.66;;;10.87;100.00
78671;BME280;68277;52.724;6.516;2023-11-19T04:49:04;100509.97;;;10.64;100.00
78671;BME280;68277;52.724;6.516;2023-11-19T04:51:30;100522.06;;;10.73;100.00
78671;BME280;68277;52.724;6.516;2023-11-19T04:53:55;100509.84;;;10.69;100.00
78671;BME280;68277;52.724;6.516;2023-11-19T04:56:22;100508.19;;;10.65;100.00
78671;BME280;68277;52.724;6.516;2023-11-19T04:58:50;100504.75;;;10.61;100.00
78671;BME280;68277;52.724;6.516;2023-11-19T05:01:15;100532.72;;;10.71;100.00
78671;BME280;68277;52.724;6.516;2023-11-19T05:03:42;100515.22;;;10.66;100.00
78671;BME280;68277;52.724;6.516;2023-11-19T05:06:07;100531.72;;;10.75;100.00
78671;BME280;68277;52.724;6.516;2023-11-19T05:08:33;100503.13;;;10.57;100.00
78671;BME280;68277;52.724;6.516;2023-11-19T05:10:58;100507.47;;;10.58;100.00
78671;BME280;68277;52.724;6.516;2023-11-19T05:13:24;100524.81;;;10.70;100.00
78671;BME280;68277;52.724;6.516;2023-11-19T05:15:51;100546.50;;;10.82;100.00
78671;BME280;68277;52.724;6.516;2023-11-19T05:18:17;100515.28;;;10.64;100.00
78671;BME280;68277;52.724;6.516;2023-11-19T05:20:44;100532.66;;;10.73;100.00
78671;BME280;68277;52.724;6.516;2023-11-19T05:23:10;100537.75;;;10.80;100.00
78671;BME280;68277;52.724;6.516;2023-11-19T05:25:36;100508.34;;;10.59;100.00
78671;BME280;68277;52.724;6.516;2023-11-19T05:28:02;100478.81;;;10.43;100.00
78671;BME280;68277;52.724;6.516;2023-11-19T05:30:27;100546.47;;;10.84;100.00
78671;BME280;68277;52.724;6.516;2023-11-19T05:32:53;100521.28;;;10.69;100.00
78671;BME280;68277;52.724;6.516;2023-11-19T05:35:18;100504.72;;;10.63;100.00
78671;BME280;68277;52.724;6.516;2023-11-19T05:37:44;100518.81;;;10.63;100.00
78671;BME280;68277;52.724;6.516;2023-11-19T05:40:09;100534.19;;;10.81;100.00
78671;BME280;68277;52.724;6.516;2023-11-19T05:42:43;100547.47;;;10.80;100.00
78671;BME280;68277;52.724;6.516;2023-11-19T05:45:11;100522.34;;;10.62;100.00
78671;BME280;68277;52.724;6.516;2023-11-19T05:47:38;100517.19;;;10.58;100.00
78671;BME280;68277;52.724;6.516;2023-11-19T05:50:04;100522.47;;;10.59;100.00
78671;BME280;68277;52.724;6.516;2023-11-19T05:52:31;100531.22;;;10.61;100.00
78671;BME280;68277;52.724;6.516;2023-11-19T05:55:01;100558.06;;;10.80;100.00
78671;BME280;68277;52.724;6.516;2023-11-19T05:57:34;100534.78;;;10.60;100.00
78671;BME280;68277;52.724;6.516;2023-11-19T06:00:00;100553.84;;;10.73;100.00
78671;BME280;68277;52.724;6.516;2023-11-19T06:02:25;100541.63;;;10.67;100.00
78671;BME280;68277;52.724;6.516;2023-11-19T06:04:53;100486.97;;;10.34;100.00
78671;BME280;68277;52.724;6.516;2023-11-19T06:07:18;100526.00;;;10.60;100.00
78671;BME280;68277;52.724;6.516;2023-11-19T06:09:45;100510.38;;;10.49;100.00
78671;BME280;68277;52.724;6.516;2023-11-19T06:12:10;100530.41;;;10.59;100.00
78671;BME280;68277;52.724;6.516;2023-11-19T06:14:36;100551.19;;;10.73;100.00
78671;BME280;68277;52.724;6.516;2023-11-19T06:17:01;100496.50;;;10.41;100.00
78671;BME280;68277;52.724;6.516;2023-11-19T06:19:27;100510.50;;;10.45;100.00
78671;BME280;68277;52.724;6.516;2023-11-19T06:21:53;100530.69;;;10.49;100.00
78671;BME280;68277;52.724;6.516;2023-11-19T06:24:19;100519.59;;;10.35;100.00
78671;BME280;68277;52.724;6.516;2023-11-19T06:26:44;100530.97;;;10.38;100.00
78671;BME280;68277;52.724;6.516;2023-11-19T06:29:10;100524.13;;;10.29;100.00
78671;BME280;68277;52.724;6.516;2023-11-19T06:31:35;100553.75;;;10.44;100.00
78671;BME280;68277;52.724;6.516;2023-11-19T06:34:02;100549.63;;;10.32;100.00
78671;BME280;68277;52.724;6.516;2023-11-19T06:36:27;100560.03;;;10.40;100.00
78671;BME280;68277;52.724;6.516;2023-11-19T06:38:52;100553.22;;;10.31;100.00
78671;BME280;68277;52.724;6.516;2023-11-19T06:41:18;100539.31;;;10.23;100.00
78671;BME280;68277;52.724;6.516;2023-11-19T06:43:43;100560.91;;;10.40;100.00
78671;BME280;68277;52.724;6.516;2023-11-19T06:46:16;100541.81;;;10.27;100.00
78671;BME280;68277;52.724;6.516;2023-11-19T06:48:41;100545.34;;;10.28;100.00
78671;BME280;68277;52.724;6.516;2023-11-19T06:51:09;100568.97;;;10.36;100.00
78671;BME280;68277;52.724;6.516;2023-11-19T06:53:35;100536.84;;;10.15;100.00
78671;BME280;68277;52.724;6.516;2023-11-19T06:56:17;100578.53;;;10.40;100.00
78671;BME280;68277;52.724;6.516;2023-11-19T06:58:43;100556.00;;;10.25;100.00
78671;BME280;68277;52.724;6.516;2023-11-19T07:01:09;100549.81;;;10.24;100.00
78671;BME280;68277;52.724;6.516;2023-11-19T07:03:35;100520.19;;;10.10;100.00
78671;BME280;68277;52.724;6.516;2023-11-19T07:06:00;100549.81;;;10.26;100.00
78671;BME280;68277;52.724;6.516;2023-11-19T07:08:25;100547.31;;;10.20;100.00
78671;BME280;68277;52.724;6.516;2023-11-19T07:10:52;100540.22;;;10.22;100.00
78671;BME280;68277;52.724;6.516;2023-11-19T07:13:20;100544.66;;;10.21;100.00
78671;BME280;68277;52.724;6.516;2023-11-19T07:15:46;100553.22;;;10.29;100.00
78671;BME280;68277;52.724;6.516;2023-11-19T07:18:11;100526.25;;;10.17;100.00
78671;BME280;68277;52.724;6.516;2023-11-19T07:20:37;100523.72;;;10.11;100.00
78671;BME280;68277;52.724;6.516;2023-11-19T07:23:03;100517.66;;;10.07;100.00
78671;BME280;68277;52.724;6.516;2023-11-19T07:25:29;100551.63;;;10.24;100.00
78671;BME280;68277;52.724;6.516;2023-11-19T07:27:55;100531.41;;;10.21;100.00
78671;BME280;68277;52.724;6.516;2023-11-19T07:30:21;100545.66;;;10.16;100.00
78671;BME280;68277;52.724;6.516;2023-11-19T07:32:47;100547.41;;;10.17;100.00
78671;BME280;68277;52.724;6.516;2023-11-19T07:35:14;100566.56;;;10.26;100.00
78671;BME280;68277;52.724;6.516;2023-11-19T07:37:41;100602.31;;;10.41;100.00
78671;BME280;68277;52.724;6.516;2023-11-19T07:40:08;100576.22;;;10.27;100.00
78671;BME280;68277;52.724;6.516;2023-11-19T07:42:33;100611.88;;;10.47;100.00
78671;BME280;68277;52.724;6.516;2023-11-19T07:44:59;100579.66;;;10.31;100.00
78671;BME280;68277;52.724;6.516;2023-11-19T07:47:24;100582.13;;;10.37;100.00
78671;BME280;68277;52.724;6.516;2023-11-19T07:49:50;100567.34;;;10.30;100.00
78671;BME280;68277;52.724;6.516;2023-11-19T07:52:16;100562.97;;;10.27;100.00
78671;BME280;68277;52.724;6.516;2023-11-19T07:54:41;100596.31;;;10.35;100.00
78671;BME280;68277;52.724;6.516;2023-11-19T07:57:07;100624.09;;;10.52;100.00
78671;BME280;68277;52.724;6.516;2023-11-19T07:59:32;100585.78;;;10.33;100.00
78671;BME280;68277;52.724;6.516;2023-11-19T08:01:58;100620.63;;;10.50;100.00
78671;BME280;68277;52.724;6.516;2023-11-19T08:04:23;100598.94;;;10.36;100.00
78671;BME280;68277;52.724;6.516;2023-11-19T08:06:49;100622.28;;;10.54;100.00
78671;BME280;68277;52.724;6.516;2023-11-19T08:09:14;100623.09;;;10.56;100.00
78671;BME280;68277;52.724;6.516;2023-11-19T08:11:43;100599.75;;;10.38;100.00
78671;BME280;68277;52.724;6.516;2023-11-19T08:14:09;100629.22;;;10.58;100.00
78671;BME280;68277;52.724;6.516;2023-11-19T08:16:39;100590.91;;;10.39;100.00
78671;BME280;68277;52.724;6.516;2023-11-19T08:19:04;100635.31;;;10.60;100.00
78671;BME280;68277;52.724;6.516;2023-11-19T08:21:30;100608.53;;;10.40;100.00
78671;BME280;68277;52.724;6.516;2023-11-19T08:23:55;100641.53;;;10.59;100.00
78671;BME280;68277;52.724;6.516;2023-11-19T08:26:21;100611.09;;;10.43;100.00
78671;BME280;68277;52.724;6.516;2023-11-19T08:28:47;100567.69;;;10.16;100.00
78671;BME280;68277;52.724;6.516;2023-11-19T08:31:12;100640.84;;;10.53;100.00
78671;BME280;68277;52.724;6.516;2023-11-19T08:33:38;100590.53;;;10.19;100.00
78671;BME280;68277;52.724;6.516;2023-11-19T08:36:04;100648.97;;;10.44;100.00
78671;BME280;68277;52.724;6.516;2023-11-19T08:38:30;100643.81;;;10.39;100.00
78671;BME280;68277;52.724;6.516;2023-11-19T08:40:56;100646.56;;;10.35;100.00
78671;BME280;68277;52.724;6.516;2023-11-19T08:43:25;100654.63;;;10.30;100.00
78671;BME280;68277;52.724;6.516;2023-11-19T08:45:51;100643.28;;;10.25;100.00
78671;BME280;68277;52.724;6.516;2023-11-19T08:48:16;100606.59;;;10.10;100.00
78671;BME280;68277;52.724;6.516;2023-11-19T08:50:42;100641.25;;;10.36;100.00
78671;BME280;68277;52.724;6.516;2023-11-19T08:53:07;100599.53;;;10.12;100.00
78671;BME280;68277;52.724;6.516;2023-11-19T08:55:33;100603.72;;;10.20;100.00
78671;BME280;68277;52.724;6.516;2023-11-19T08:57:58;100604.53;;;10.24;100.00
78671;BME280;68277;52.724;6.516;2023-11-19T09:00:24;100603.53;;;10.28;100.00
78671;BME280;68277;52.724;6.516;2023-11-19T09:02:49;100657.44;;;10.58;100.00
78671;BME280;68277;52.724;6.516;2023-11-19T09:05:16;100588.38;;;10.35;100.00
78671;BME280;68277;52.724;6.516;2023-11-19T09:07:41;100588.38;;;10.35;100.00
78671;BME280;68277;52.724;6.516;2023-11-19T09:10:07;100590.19;;;10.32;100.00
78671;BME280;68277;52.724;6.516;2023-11-19T09:12:34;100604.00;;;10.44;100.00
78671;BME280;68277;52.724;6.516;2023-11-19T09:15:00;100618.81;;;10.51;100.00
78671;BME280;68277;52.724;6.516;2023-11-19T09:17:27;100622.16;;;10.59;100.00
78671;BME280;68277;52.724;6.516;2023-11-19T09:19:52;100611.19;;;10.72;100.00
78671;BME280;68277;52.724;6.516;2023-11-19T09:22:18;100620.47;;;10.88;100.00
78671;BME280;68277;52.724;6.516;2023-11-19T09:24:45;100646.97;;;11.19;100.00
78671;BME280;68277;52.724;6.516;2023-11-19T09:27:11;100608.59;;;11.03;100.00
78671;BME280;68277;52.724;6.516;2023-11-19T09:29:38;100602.34;;;11.06;100.00
78671;BME280;68277;52.724;6.516;2023-11-19T09:32:04;100595.00;;;11.15;100.00
78671;BME280;68277;52.724;6.516;2023-11-19T09:34:30;100645.41;;;11.43;100.00
78671;BME280;68277;52.724;6.516;2023-11-19T09:36:55;100603.03;;;11.12;100.00
78671;BME280;68277;52.724;6.516;2023-11-19T09:39:21;100618.97;;;11.11;100.00
78671;BME280;68277;52.724;6.516;2023-11-19T09:41:46;100600.72;;;11.00;100.00
78671;BME280;68277;52.724;6.516;2023-11-19T09:44:12;100591.00;;;11.00;100.00
78671;BME280;68277;52.724;6.516;2023-11-19T09:46:42;100649.41;;;11.27;100.00
78671;BME280;68277;52.724;6.516;2023-11-19T09:49:08;100642.47;;;11.23;100.00
78671;BME280;68277;52.724;6.516;2023-11-19T09:51:38;100627.72;;;11.13;100.00
78671;BME280;68277;52.724;6.516;2023-11-19T09:54:04;100639.91;;;11.20;100.00
78671;BME280;68277;52.724;6.516;2023-11-19T09:56:30;100604.31;;;10.97;100.00
78671;BME280;68277;52.724;6.516;2023-11-19T09:58:56;100625.34;;;11.04;100.00
78671;BME280;68277;52.724;6.516;2023-11-19T10:01:21;100629.84;;;11.00;100.00
78671;BME280;68277;52.724;6.516;2023-11-19T10:03:48;100621.06;;;10.99;100.00
78671;BME280;68277;52.724;6.516;2023-11-19T10:06:15;100616.97;;;10.88;100.00
78671;BME280;68277;52.724;6.516;2023-11-19T10:08:41;100637.75;;;11.02;100.00
78671;BME280;68277;52.724;6.516;2023-11-19T10:11:08;100636.84;;;11.02;100.00
78671;BME280;68277;52.724;6.516;2023-11-19T10:13:36;100602.84;;;10.87;100.00
78671;BME280;68277;52.724;6.516;2023-11-19T10:16:09;100609.91;;;10.87;100.00
78671;BME280;68277;52.724;6.516;2023-11-19T10:18:37;100631.41;;;11.07;100.00
78671;BME280;68277;52.724;6.516;2023-11-19T10:21:04;100608.97;;;10.89;100.00
78671;BME280;68277;52.724;6.516;2023-11-19T10:23:52;100614.19;;;10.92;100.00
78671;BME280;68277;52.724;6.516;2023-11-19T10:26:20;100556.88;;;10.59;100.00
78671;BME280;68277;52.724;6.516;2023-11-19T10:28:46;100582.25;;;10.66;100.00
78671;BME280;68277;52.724;6.516;2023-11-19T10:31:15;100622.91;;;10.96;100.00
78671;BME280;68277;52.724;6.516;2023-11-19T10:33:41;100629.94;;;10.97;100.00
78671;BME280;68277;52.724;6.516;2023-11-19T10:36:07;100615.69;;;11.01;100.00
78671;BME280;68277;52.724;6.516;2023-11-19T10:38:33;100589.56;;;10.89;100.00
78671;BME280;68277;52.724;6.516;2023-11-19T10:40:59;100584.44;;;10.83;100.00
78671;BME280;68277;52.724;6.516;2023-11-19T10:43:25;100608.59;;;11.03;100.00
78671;BME280;68277;52.724;6.516;2023-11-19T10:45:51;100630.03;;;11.25;100.00
78671;BME280;68277;52.724;6.516;2023-11-19T10:48:17;100628.28;;;11.25;100.00
78671;BME280;68277;52.724;6.516;2023-11-19T10:50:44;100529.13;;;10.74;100.00
78671;BME280;68277;52.724;6.516;2023-11-19T10:53:12;100565.53;;;10.96;100.00
78671;BME280;68277;52.724;6.516;2023-11-19T10:55:42;100587.06;;;11.15;100.00
78671;BME280;68277;52.724;6.516;2023-11-19T10:58:15;100574.69;;;11.16;100.00
78671;BME280;68277;52.724;6.516;2023-11-19T11:00:47;100580.53;;;11.27;100.00
78671;BME280;68277;52.724;6.516;2023-11-19T11:03:25;100570.66;;;11.32;100.00
78671;BME280;68277;52.724;6.516;2023-11-19T11:05:53;100561.03;;;11.29;100.00
78671;BME280;68277;52.724;6.516;2023-11-19T11:08:20;100573.13;;;11.38;100.00
78671;BME280;68277;52.724;6.516;2023-11-19T11:13:18;100551.53;;;11.22;100.00
78671;BME280;68277;52.724;6.516;2023-11-19T11:15:44;100605.66;;;11.43;100.00
78671;BME280;68277;52.724;6.516;2023-11-19T11:18:13;100593.00;;;11.23;100.00
78671;BME280;68277;52.724;6.516;2023-11-19T11:20:39;100585.34;;;11.13;100.00
78671;BME280;68277;52.724;6.516;2023-11-19T11:28:35;100624.81;;;11.23;100.00
78671;BME280;68277;52.724;6.516;2023-11-19T11:34:19;100620.53;;;11.18;100.00
78671;BME280;68277;52.724;6.516;2023-11-19T11:37:10;100610.06;;;11.13;100.00
78671;BME280;68277;52.724;6.516;2023-11-19T11:39:41;100625.91;;;11.15;100.00
78671;BME280;68277;52.724;6.516;2023-11-19T11:45:14;100614.91;;;10.97;100.00
78671;BME280;68277;52.724;6.516;2023-11-19T11:50:23;100594.63;;;10.66;100.00
78671;BME280;68277;52.724;6.516;2023-11-19T11:57:49;100597.34;;;10.63;100.00
78671;BME280;68277;52.724;6.516;2023-11-19T12:00:31;100553.75;;;10.44;100.00
78671;BME280;68277;52.724;6.516;2023-11-19T12:02:59;100617.91;;;10.85;100.00
78671;BME280;68277;52.724;6.516;2023-11-19T12:05:26;100604.25;;;11.00;100.00
78671;BME280;68277;52.724;6.516;2023-11-19T12:08:04;100603.84;;;11.14;100.00
78671;BME280;68277;52.724;6.516;2023-11-19T12:10:49;100600.16;;;11.20;100.00
78671;BME280;68277;52.724;6.516;2023-11-19T12:13:17;100548.81;;;10.94;100.00
78671;BME280;68277;52.724;6.516;2023-11-19T12:18:32;100592.91;;;11.55;100.00
78671;BME280;68277;52.724;6.516;2023-11-19T12:20:58;100578.72;;;11.56;100.00
78671;BME280;68277;52.724;6.516;2023-11-19T12:23:29;100591.63;;;11.70;100.00
78671;BME280;68277;52.724;6.516;2023-11-19T12:25:58;100602.69;;;11.83;100.00
78671;BME280;68277;52.724;6.516;2023-11-19T12:28:25;100570.28;;;11.73;100.00
78671;BME280;68277;52.724;6.516;2023-11-19T12:30:54;100593.53;;;11.93;100.00
78671;BME280;68277;52.724;6.516;2023-11-19T12:33:32;100537.13;;;11.60;100.00
78671;BME280;68277;52.724;6.516;2023-11-19T12:35:58;100566.88;;;11.70;100.00
78671;BME280;68277;52.724;6.516;2023-11-19T12:38:27;100549.88;;;11.47;100.00
78671;BME280;68277;52.724;6.516;2023-11-19T12:41:03;100537.97;;;11.33;100.00
78671;BME280;68277;52.724;6.516;2023-11-19T12:43:29;100549.69;;;11.24;100.00
78671;BME280;68277;52.724;6.516;2023-11-19T12:45:55;100592.19;;;11.50;100.00
78671;BME280;68277;52.724;6.516;2023-11-19T12:48:20;100586.22;;;11.44;100.00
78671;BME280;68277;52.724;6.516;2023-11-19T12:50:56;100597.84;;;11.38;100.00
78671;BME280;68277;52.724;6.516;2023-11-19T12:53:24;100581.63;;;11.20;100.00
78671;BME280;68277;52.724;6.516;2023-11-19T12:55:52;100601.84;;;11.22;100.00
78671;BME280;68277;52.724;6.516;2023-11-19T12:58:35;100560.03;;;11.02;100.00
78671;BME280;68277;52.724;6.516;2023-11-19T13:01:06;100507.28;;;10.66;100.00
78671;BME280;68277;52.724;6.516;2023-11-19T13:03:36;100592.34;;;11.15;100.00
78671;BME280;68277;52.724;6.516;2023-11-19T13:06:10;100597.59;;;11.17;100.00